CU-0020 weather

Lora Airport
HolguĂ­n, Cuba

Public forecast

Using degrees Celsius for public forecast. Weather courtesy of forecast.io.

Closest aviation weather report (METAR) to Lora Airport

Closest report is Frank Pais International Airport, 23.7 nm (44.0 km) SSE. Retrieved 2019/12/10 09:50 UTC (53 minutes ago):

MUHG 100950Z 04004KT 8000 FEW020 23/22 Q1016

Closest aviation forecast (TAF) to Lora Airport

Closest forecast is Frank Pais International Airport, 23.7 nm (44.0 km) SSE. Retrieved 2019/12/10 06:03 UTC (5 hours ago):

TAF MUHG 100500Z 1006/1106 05006KT 9000 FEW020 BECMG 1015/1017 09012KT SCT020 BECMG 1101/1103 VRB03KT FEW020